Time;durP1;ratioP1;P1;durP2;ratioP2;P2;SDS_P1;SDS_P2;PMS_P1;PMS_P2;Temp;Humidity;BMP_temperature;BMP_pressure;BME280_temperature;BME280_humidity;BME280_pressure;Samples;Min_cycle;Max_cycle;Signal;HPM_P1;HPM_P2
2022/07/14 00:02:04;;;;;;;6.43;3.55;;;14.20;99.90;;;;;;5096459;28;20089;-70
2022/07/14 00:04:32;;;;;;;7.32;3.58;;;14.10;99.90;;;;;;5095645;28;20044;-70
2022/07/14 00:07:00;;;;;;;8.90;4.78;;;14.10;99.90;;;;;;5094365;28;20548;-71
2022/07/14 00:09:28;;;;;;;8.90;5.57;;;14.10;99.90;;;;;;5076233;28;20101;-71
2022/07/14 00:11:55;;;;;;;34.47;25.73;;;14.10;99.90;;;;;;5091304;28;20074;-70
2022/07/14 00:14:22;;;;;;;4.82;3.03;;;14.10;99.90;;;;;;5093513;28;20066;-71
2022/07/14 00:16:50;;;;;;;5.25;2.97;;;14.00;99.90;;;;;;5076506;28;20097;-70
2022/07/14 00:19:18;;;;;;;5.40;2.92;;;14.00;99.90;;;;;;5093521;28;20032;-71
2022/07/14 00:21:45;;;;;;;6.53;3.40;;;13.90;99.90;;;;;;5094518;28;20051;-70
2022/07/14 00:24:14;;;;;;;7.45;3.60;;;13.90;99.90;;;;;;5094197;28;20036;-71
2022/07/14 00:26:42;;;;;;;6.15;3.33;;;13.80;99.90;;;;;;5069872;28;20449;-70
2022/07/14 00:29:09;;;;;;;7.60;2.90;;;13.80;99.90;;;;;;5077153;28;20040;-71
2022/07/14 00:31:37;;;;;;;5.22;3.13;;;13.80;99.90;;;;;;5096554;28;20074;-71
2022/07/14 00:34:04;;;;;;;6.35;3.15;;;13.80;99.90;;;;;;5095084;28;20036;-70
2022/07/14 00:36:32;;;;;;;6.72;3.30;;;13.80;99.90;;;;;;5076972;28;20070;-71
2022/07/14 00:38:59;;;;;;;6.20;3.22;;;13.70;99.90;;;;;;5094762;28;20036;-70
2022/07/14 00:41:28;;;;;;;6.10;3.28;;;13.70;99.90;;;;;;5095458;28;20048;-69
2022/07/14 00:43:55;;;;;;;6.57;3.80;;;13.70;99.90;;;;;;5094997;28;20052;-70
2022/07/14 00:46:22;;;;;;;6.03;3.53;;;13.70;99.90;;;;;;5094619;28;20545;-70
2022/07/14 00:48:50;;;;;;;6.63;3.78;;;13.70;99.90;;;;;;5094633;28;20479;-70
2022/07/14 00:51:17;;;;;;;10.85;3.95;;;13.60;99.90;;;;;;5076599;28;20060;-70
2022/07/14 00:53:44;;;;;;;7.07;3.35;;;13.50;99.90;;;;;;5094022;28;20552;-71
2022/07/14 00:56:11;;;;;;;6.93;3.42;;;13.50;99.90;;;;;;5075475;28;20102;-71
2022/07/14 00:58:40;;;;;;;8.10;3.90;;;13.50;99.90;;;;;;5074909;28;20044;-70
2022/07/14 01:01:07;;;;;;;6.03;3.83;;;13.50;99.90;;;;;;5075271;28;20056;-71
2022/07/14 01:03:35;;;;;;;6.70;3.80;;;13.50;99.90;;;;;;5074764;28;20040;-70
2022/07/14 01:06:04;;;;;;;6.10;3.78;;;13.50;99.90;;;;;;5096655;28;20044;-70
2022/07/14 01:08:31;;;;;;;6.68;3.50;;;13.50;99.90;;;;;;5096767;28;20050;-71
2022/07/14 01:10:58;;;;;;;7.30;3.63;;;13.40;99.90;;;;;;5097425;28;20074;-71
2022/07/14 01:13:26;;;;;;;6.70;3.63;;;13.50;99.90;;;;;;5097389;28;20067;-70
2022/07/14 01:15:55;;;;;;;7.10;4.03;;;13.40;99.90;;;;;;5097173;28;20048;-70
2022/07/14 01:18:23;;;;;;;7.68;3.67;;;13.40;99.90;;;;;;5096562;28;20073;-71
2022/07/14 01:20:50;;;;;;;6.13;3.40;;;13.40;99.90;;;;;;5078141;28;20166;-71
2022/07/14 01:23:19;;;;;;;6.43;3.70;;;13.40;99.90;;;;;;5077789;28;20044;-71
2022/07/14 01:25:47;;;;;;;7.80;3.83;;;13.30;99.90;;;;;;5078407;28;20068;-71
2022/07/14 01:28:14;;;;;;;8.63;4.18;;;13.20;99.90;;;;;;5078287;28;20059;-71
2022/07/14 01:30:41;;;;;;;8.90;4.70;;;13.20;99.90;;;;;;5096266;28;20035;-72
2022/07/14 01:33:08;;;;;;;8.63;3.92;;;13.10;99.90;;;;;;5077709;28;20066;-70
2022/07/14 01:35:36;;;;;;;11.32;4.45;;;13.10;99.90;;;;;;5078135;28;20441;-71
2022/07/14 01:38:03;;;;;;;7.95;4.38;;;13.20;99.90;;;;;;5077917;28;20048;-71
2022/07/14 01:40:32;;;;;;;7.63;4.22;;;13.20;99.90;;;;;;5096440;28;20067;-71
2022/07/14 01:43:00;;;;;;;6.35;3.60;;;13.20;99.90;;;;;;5077820;28;20502;-71
2022/07/14 01:45:28;;;;;;;8.02;3.90;;;13.20;99.90;;;;;;5077649;28;20101;-71
2022/07/14 01:47:55;;;;;;;6.13;3.80;;;13.10;99.90;;;;;;5077718;28;20090;-71
2022/07/14 01:50:22;;;;;;;9.13;3.67;;;13.00;99.90;;;;;;5095746;28;20044;-70
2022/07/14 01:52:50;;;;;;;7.03;3.67;;;13.00;99.90;;;;;;5095766;28;20039;-71
2022/07/14 01:55:20;;;;;;;5.30;3.60;;;13.00;99.90;;;;;;5077334;28;20040;-71
2022/07/14 01:57:49;;;;;;;8.20;3.42;;;13.10;99.90;;;;;;5077795;28;20052;-71
2022/07/14 02:00:17;;;;;;;6.90;3.78;;;13.00;99.90;;;;;;5077418;28;20443;-71
2022/07/14 02:02:44;;;;;;;8.45;3.53;;;13.00;99.90;;;;;;5095655;28;20109;-72
2022/07/14 02:05:12;;;;;;;5.03;3.10;;;12.90;99.90;;;;;;5077321;28;20470;-71
2022/07/14 02:07:41;;;;;;;9.57;3.08;;;12.90;99.90;;;;;;5078814;28;20048;-72
2022/07/14 02:13:03;;;;;;;7.32;3.00;;;12.90;99.90;;;;;;5077121;28;20498;-71
2022/07/14 02:15:31;;;;;;;6.47;3.05;;;12.80;99.90;;;;;;5076659;28;20089;-71
2022/07/14 02:17:58;;;;;;;6.07;3.30;;;12.80;99.90;;;;;;5076924;28;20050;-70
2022/07/14 02:20:26;;;;;;;5.07;2.92;;;12.80;99.90;;;;;;5095354;28;20051;-71
2022/07/14 02:22:53;;;;;;;5.30;3.00;;;12.80;99.90;;;;;;5076821;28;20048;-71
2022/07/14 02:25:20;;;;;;;5.18;3.35;;;12.80;99.90;;;;;;5076881;28;20086;-70
2022/07/14 02:27:48;;;;;;;7.15;3.20;;;12.80;99.90;;;;;;5077564;28;20143;-71
2022/07/14 02:30:16;;;;;;;4.85;3.60;;;12.80;99.90;;;;;;5096043;28;20047;-71
2022/07/14 02:32:44;;;;;;;5.82;3.50;;;12.70;99.90;;;;;;5078210;28;20471;-71
2022/07/14 02:35:11;;;;;;;8.15;3.45;;;12.70;99.90;;;;;;5077331;28;20564;-71
2022/07/14 02:37:38;;;;;;;7.00;3.65;;;12.70;99.90;;;;;;5077758;28;20048;-70
2022/07/14 02:40:07;;;;;;;6.38;3.80;;;12.70;99.90;;;;;;5077809;28;20418;-71
2022/07/14 02:42:35;;;;;;;6.07;3.75;;;12.70;99.90;;;;;;5077732;28;20052;-71
2022/07/14 02:45:03;;;;;;;6.05;3.78;;;12.70;99.90;;;;;;5077406;28;20048;-71
2022/07/14 02:47:32;;;;;;;6.72;4.10;;;12.70;99.90;;;;;;5076974;28;20052;-70
2022/07/14 02:49:59;;;;;;;6.60;3.50;;;12.60;99.90;;;;;;5077377;28;20140;-71
2022/07/14 02:52:30;;;;;;;7.53;4.05;;;12.70;99.90;;;;;;5076807;28;20044;-71
2022/07/14 02:54:57;;;;;;;7.55;3.65;;;12.60;99.90;;;;;;5077197;28;20039;-71
2022/07/14 02:57:28;;;;;;;6.28;3.63;;;12.60;99.90;;;;;;5077920;28;20120;-71
2022/07/14 02:59:57;;;;;;;4.38;3.17;;;12.60;99.90;;;;;;5077101;28;20434;-71
2022/07/14 03:02:26;;;;;;;5.38;3.30;;;12.60;99.90;;;;;;5076643;28;20130;-71
2022/07/14 03:04:55;;;;;;;6.18;3.60;;;12.50;99.90;;;;;;5077263;28;20047;-70
2022/07/14 03:07:22;;;;;;;5.35;3.00;;;12.50;99.90;;;;;;5094614;28;20101;-71
2022/07/14 03:09:50;;;;;;;5.18;3.10;;;12.50;99.90;;;;;;5094366;28;20093;-71
2022/07/14 03:12:18;;;;;;;5.78;3.72;;;12.50;99.90;;;;;;5075711;28;20040;-71
2022/07/14 03:14:46;;;;;;;7.55;3.50;;;12.50;99.90;;;;;;5075692;28;20157;-71
2022/07/14 03:17:14;;;;;;;8.48;3.70;;;12.40;99.90;;;;;;5094466;28;20047;-71
2022/07/14 03:19:42;;;;;;;6.53;3.78;;;12.50;99.90;;;;;;5073446;28;20057;-72
2022/07/14 03:22:11;;;;;;;7.60;3.50;;;12.50;99.90;;;;;;5074129;28;20438;-70
2022/07/14 03:24:39;;;;;;;6.47;3.30;;;12.50;99.90;;;;;;5070671;28;20135;-71
2022/07/14 03:27:06;;;;;;;9.38;3.70;;;12.50;99.90;;;;;;5075935;28;20054;-71
2022/07/14 03:29:34;;;;;;;6.68;3.50;;;12.60;99.90;;;;;;5075993;28;20048;-71
2022/07/14 03:32:01;;;;;;;5.80;3.50;;;12.60;99.90;;;;;;5094159;28;20040;-71
2022/07/14 03:34:32;;;;;;;6.45;3.63;;;12.60;99.90;;;;;;5075703;28;20096;-71
2022/07/14 03:37:00;;;;;;;4.95;3.80;;;12.60;99.90;;;;;;5094204;28;20393;-71
2022/07/14 03:39:38;;;;;;;5.35;3.53;;;12.60;99.90;;;;;;5076113;28;20048;-71
2022/07/14 03:42:05;;;;;;;6.25;3.70;;;12.60;99.90;;;;;;5075675;28;20047;-70
2022/07/14 03:44:32;;;;;;;6.53;3.45;;;12.70;99.90;;;;;;5096461;22;20487;-76
2022/07/14 03:47:00;;;;;;;10.30;4.97;;;12.60;99.90;;;;;;5083956;28;20112;-76
2022/07/14 03:49:29;;;;;;;8.32;5.65;;;12.70;99.90;;;;;;5076079;28;20093;-76
2022/07/14 03:52:00;;;;;;;10.48;6.47;;;12.70;99.90;;;;;;5080381;28;20048;-75
2022/07/14 03:54:29;;;;;;;10.05;5.85;;;12.80;99.90;;;;;;5083683;28;20043;-76
2022/07/14 03:56:58;;;;;;;10.00;5.88;;;12.80;99.90;;;;;;5076129;28;20051;-75
2022/07/14 03:59:27;;;;;;;8.52;5.18;;;12.90;99.90;;;;;;5100070;28;20079;-76
2022/07/14 04:01:54;;;;;;;7.18;4.38;;;13.10;99.90;;;;;;5093682;28;20090;-76
2022/07/14 04:04:22;;;;;;;6.80;4.05;;;14.00;99.90;;;;;;5093679;28;20119;-76
2022/07/14 04:06:50;;;;;;;8.15;5.80;;;15.00;99.90;;;;;;5075755;28;20417;-76
2022/07/14 04:09:17;;;;;;;7.68;4.60;;;16.20;99.90;;;;;;5075267;28;20044;-77
2022/07/14 04:11:49;;;;;;;7.55;5.38;;;17.20;1.00;;;;;;5081701;28;20052;-75
2022/07/14 04:14:20;;;;;;;7.35;4.28;;;17.90;1.00;;;;;;5110640;28;20559;-75
2022/07/14 04:16:48;;;;;;;9.07;3.63;;;18.50;1.00;;;;;;5095773;28;20043;-74
2022/07/14 04:19:17;;;;;;;9.30;3.70;;;19.20;1.00;;;;;;5092574;28;20071;-75
2022/07/14 04:21:45;;;;;;;5.85;3.40;;;19.80;99.90;;;;;;5092049;28;20075;-75
2022/07/14 04:24:13;;;;;;;6.57;3.03;;;20.30;99.90;;;;;;5087783;28;20448;-75
2022/07/14 04:26:43;;;;;;;8.90;3.13;;;20.60;99.90;;;;;;5075824;28;20048;-75
2022/07/14 04:29:10;;;;;;;12.30;3.40;;;21.00;99.90;;;;;;5092375;28;20051;-74
2022/07/14 04:31:39;;;;;;;6.68;2.90;;;21.40;99.90;;;;;;5093710;28;20055;-74
2022/07/14 04:34:10;;;;;;;7.03;3.50;;;21.60;99.90;;;;;;5076615;28;20406;-75
2022/07/14 04:36:38;;;;;;;8.32;2.97;;;22.00;99.90;;;;;;5093480;28;20076;-74
2022/07/14 04:39:09;;;;;;;9.55;3.20;;;21.90;99.90;;;;;;5076423;28;20052;-75
2022/07/14 04:41:37;;;;;;;48.42;6.57;;;22.10;99.90;;;;;;5079818;28;20052;-74
2022/07/14 04:44:05;;;;;;;6.95;3.53;;;22.60;99.90;;;;;;5082326;28;20135;-76
2022/07/14 04:46:32;;;;;;;8.15;3.50;;;23.40;99.90;;;;;;5084702;28;20036;-75
2022/07/14 04:52:04;;;;;;;7.15;3.58;;;23.70;99.90;;;;;;4998793;28;20042;-74
2022/07/14 04:55:00;;;;;;;7.80;3.67;;;24.20;99.90;;;;;;5010453;28;20034;-75
2022/07/14 04:57:53;;;;;;;10.18;3.97;;;25.20;99.90;;;;;;5079078;28;20583;-75
2022/07/14 05:00:22;;;;;;;8.95;5.32;;;25.70;99.90;;;;;;5087607;28;20473;-73
2022/07/14 05:02:49;;;;;;;9.65;4.45;;;26.20;99.90;;;;;;5080933;28;20048;-74
2022/07/14 05:05:18;;;;;;;12.68;4.60;;;26.40;98.60;;;;;;5080228;28;20119;-75
2022/07/14 05:07:46;;;;;;;11.15;4.18;;;26.70;98.60;;;;;;5078156;28;20040;-75
2022/07/14 05:10:13;;;;;;;8.52;3.88;;;27.20;95.70;;;;;;5077901;28;20051;-73
2022/07/14 05:12:41;;;;;;;12.82;5.78;;;27.50;94.60;;;;;;5077784;28;20086;-75
2022/07/14 05:15:09;;;;;;;9.98;6.78;;;27.80;93.10;;;;;;5095048;28;20126;-75
2022/07/14 05:17:37;;;;;;;14.77;7.22;;;27.90;92.50;;;;;;5077691;28;20139;-74
2022/07/14 05:20:11;;;;;;;9.65;4.35;;;27.80;92.20;;;;;;5079930;28;20051;-73
2022/07/14 05:22:42;;;;;;;8.77;4.53;;;27.70;90.90;;;;;;5080632;28;20071;-75
2022/07/14 05:25:13;;;;;;;8.85;4.28;;;26.60;91.50;;;;;;5098326;28;20048;-73
2022/07/14 05:27:41;;;;;;;9.15;4.53;;;26.90;91.40;;;;;;5076197;28;20466;-74
2022/07/14 05:30:15;;;;;;;10.00;4.70;;;27.20;91.10;;;;;;5078634;28;20050;-75
2022/07/14 05:32:43;;;;;;;9.27;5.43;;;27.70;90.40;;;;;;5082097;28;20044;-74
2022/07/14 05:35:10;;;;;;;12.55;5.70;;;28.30;89.90;;;;;;5085955;28;20137;-74
2022/07/14 05:37:38;;;;;;;9.75;4.82;;;28.60;87.50;;;;;;5080774;28;20131;-73
2022/07/14 05:40:09;;;;;;;9.25;4.50;;;28.30;86.50;;;;;;5080713;28;20048;-74
2022/07/14 05:42:36;;;;;;;10.32;4.95;;;28.50;86.00;;;;;;5077653;28;20044;-75
2022/07/14 05:45:06;;;;;;;11.45;5.30;;;28.30;86.10;;;;;;5077870;28;20049;-74
2022/07/14 05:47:34;;;;;;;8.88;4.90;;;28.40;85.00;;;;;;5078481;28;20055;-75
2022/07/14 05:50:02;;;;;;;16.73;5.13;;;28.00;85.20;;;;;;5078181;28;20494;-75
2022/07/14 05:52:31;;;;;;;11.05;4.43;;;27.30;86.00;;;;;;5079526;28;20044;-75
2022/07/14 05:54:59;;;;;;;8.70;3.95;;;27.10;86.80;;;;;;5089521;28;20464;-74
2022/07/14 05:57:29;;;;;;;10.98;4.07;;;26.50;88.00;;;;;;5074983;28;20406;-74
2022/07/14 05:59:57;;;;;;;17.15;5.30;;;26.30;87.80;;;;;;5076978;28;20039;-74
2022/07/14 06:02:24;;;;;;;9.18;3.70;;;25.80;89.60;;;;;;5081463;28;20390;-73
2022/07/14 06:04:52;;;;;;;14.15;4.65;;;25.30;90.40;;;;;;5083126;28;20039;-75
2022/07/14 06:07:20;;;;;;;9.48;3.97;;;25.00;90.80;;;;;;5094074;28;20507;-73
2022/07/14 06:09:53;;;;;;;12.07;4.53;;;24.60;91.80;;;;;;5076922;28;20071;-74
2022/07/14 06:12:21;;;;;;;12.88;4.28;;;24.70;92.10;;;;;;5091278;28;20051;-75
2022/07/14 06:14:50;;;;;;;15.93;5.07;;;24.70;92.20;;;;;;5101329;28;20050;-74
2022/07/14 06:17:18;;;;;;;9.50;4.25;;;24.70;91.90;;;;;;5075933;28;20048;-74
2022/07/14 06:19:46;;;;;;;13.30;7.15;;;24.90;91.80;;;;;;5077256;28;20047;-75
2022/07/14 06:22:16;;;;;;;8.05;4.40;;;25.00;91.50;;;;;;5076429;28;20051;-76
2022/07/14 06:24:43;;;;;;;11.82;5.65;;;25.10;91.30;;;;;;5083754;28;20050;-75
2022/07/14 06:27:11;;;;;;;11.63;4.88;;;25.30;91.20;;;;;;5094964;28;20077;-73
2022/07/14 06:29:39;;;;;;;10.27;4.13;;;25.50;91.50;;;;;;5084753;28;20052;-75
2022/07/14 06:32:08;;;;;;;9.95;4.47;;;25.70;90.70;;;;;;5095356;28;20136;-75
2022/07/14 06:34:35;;;;;;;7.32;4.28;;;25.80;90.70;;;;;;5094290;28;20064;-74
2022/07/14 06:37:11;;;;;;;9.45;4.40;;;25.90;90.60;;;;;;5078405;28;20082;-75
2022/07/14 06:39:39;;;;;;;10.25;5.80;;;26.20;90.50;;;;;;5077500;28;20040;-75
2022/07/14 06:42:07;;;;;;;12.30;5.65;;;26.30;90.20;;;;;;5077187;28;20089;-74
2022/07/14 06:44:42;;;;;;;10.63;6.35;;;26.30;90.00;;;;;;5082599;28;20051;-74
2022/07/14 06:47:12;;;;;;;15.82;6.50;;;26.40;89.50;;;;;;5097757;28;20109;-72
2022/07/14 06:49:39;;;;;;;12.38;7.18;;;26.40;90.00;;;;;;5115265;28;20032;-72
2022/07/14 06:52:07;;;;;;;16.05;6.20;;;26.50;90.20;;;;;;5102406;28;20044;-72
2022/07/14 06:54:35;;;;;;;15.00;6.80;;;25.80;90.60;;;;;;5084140;28;20094;-72
2022/07/14 06:57:02;;;;;;;11.82;6.53;;;25.50;91.20;;;;;;5095899;28;20111;-74
2022/07/14 06:59:30;;;;;;;13.25;6.18;;;25.20;91.20;;;;;;5095532;28;20047;-72
2022/07/14 07:01:57;;;;;;;13.75;6.05;;;25.10;91.20;;;;;;5094768;28;20109;-77
2022/07/14 07:04:26;;;;;;;12.02;6.82;;;25.10;91.20;;;;;;5094662;28;20044;-74
2022/07/14 07:06:52;;;;;;;11.43;5.90;;;25.00;90.90;;;;;;5094957;28;20046;-71
2022/07/14 07:09:20;;;;;;;13.65;5.82;;;24.70;90.60;;;;;;5094795;28;20031;-72
2022/07/14 07:11:49;;;;;;;9.60;4.40;;;24.50;90.60;;;;;;5095150;28;20492;-72
2022/07/14 07:14:17;;;;;;;10.95;3.70;;;24.40;90.10;;;;;;5091484;28;20048;-72
2022/07/14 07:16:46;;;;;;;8.85;5.00;;;24.70;90.00;;;;;;5088092;28;20502;-72
2022/07/14 07:19:13;;;;;;;11.65;4.22;;;24.70;89.60;;;;;;5092912;28;20048;-74
2022/07/14 07:21:42;;;;;;;8.82;3.90;;;24.80;88.90;;;;;;5082825;28;20060;-73
2022/07/14 07:24:10;;;;;;;9.48;3.95;;;25.00;88.60;;;;;;5094602;28;20044;-73
2022/07/14 07:26:40;;;;;;;15.65;4.57;;;25.40;87.70;;;;;;5079634;28;20127;-73
2022/07/14 07:29:07;;;;;;;13.27;4.47;;;25.30;87.80;;;;;;5094433;28;20101;-73
2022/07/14 07:31:35;;;;;;;11.13;4.70;;;25.40;88.70;;;;;;5084291;28;20063;-72
2022/07/14 07:34:03;;;;;;;14.43;4.47;;;25.40;88.40;;;;;;5093588;28;20044;-72
2022/07/14 07:36:30;;;;;;;13.40;4.97;;;25.40;87.80;;;;;;5094087;28;20486;-73
2022/07/14 07:38:59;;;;;;;20.35;6.38;;;25.70;87.60;;;;;;5094835;28;20437;-72
2022/07/14 07:41:26;;;;;;;14.77;6.10;;;25.80;87.30;;;;;;5082962;28;20040;-72
2022/07/14 07:43:54;;;;;;;12.77;4.30;;;25.90;88.10;;;;;;5093028;28;20054;-73
2022/07/14 07:46:21;;;;;;;18.30;4.43;;;25.80;85.90;;;;;;5094495;28;20040;-71
2022/07/14 07:48:48;;;;;;;21.17;12.25;;;25.90;86.00;;;;;;5094176;28;20040;-72
2022/07/14 07:51:16;;;;;;;11.07;4.28;;;25.90;85.10;;;;;;5094098;28;20043;-72
2022/07/14 07:53:44;;;;;;;8.82;4.20;;;25.80;85.10;;;;;;5083669;28;20052;-73
2022/07/14 07:56:13;;;;;;;10.27;4.90;;;26.00;85.00;;;;;;5109438;28;20107;-72
2022/07/14 07:58:40;;;;;;;11.25;4.00;;;26.30;85.00;;;;;;5093445;28;20044;-72
2022/07/14 08:01:08;;;;;;;10.73;5.18;;;26.70;83.90;;;;;;5094158;28;20173;-72
2022/07/14 08:03:36;;;;;;;13.38;6.43;;;27.00;83.20;;;;;;5094040;28;20123;-73
2022/07/14 08:06:03;;;;;;;7.82;4.18;;;27.10;81.10;;;;;;5092067;28;20044;-72
2022/07/14 08:08:31;;;;;;;9.20;3.30;;;27.30;80.20;;;;;;5094213;28;20075;-72
2022/07/14 08:10:58;;;;;;;78.85;13.52;;;27.60;78.30;;;;;;5097002;28;20036;-73
2022/07/14 08:13:26;;;;;;;17.05;4.55;;;27.60;76.90;;;;;;5110614;28;20089;-73
2022/07/14 08:15:54;;;;;;;7.65;4.05;;;27.60;77.40;;;;;;5126561;28;20036;-72
2022/07/14 08:18:21;;;;;;;9.52;3.90;;;27.80;77.60;;;;;;5131745;28;20032;-73
2022/07/14 08:20:49;;;;;;;22.52;7.60;;;27.90;77.60;;;;;;5119483;28;20354;-73
2022/07/14 08:23:17;;;;;;;8.73;5.03;;;28.20;77.40;;;;;;5101933;28;20049;-73
2022/07/14 08:25:44;;;;;;;19.35;13.70;;;28.40;76.00;;;;;;5116398;28;20044;-73
2022/07/14 08:28:13;;;;;;;6.97;3.03;;;28.60;75.30;;;;;;5099521;28;20044;-73
2022/07/14 08:30:42;;;;;;;9.10;3.50;;;28.60;73.30;;;;;;5098392;28;20044;-73
2022/07/14 08:33:09;;;;;;;13.38;5.50;;;28.60;73.70;;;;;;5098162;28;20067;-72
2022/07/14 08:35:37;;;;;;;12.35;4.93;;;28.80;74.20;;;;;;5096672;28;20048;-74
2022/07/14 08:38:04;;;;;;;10.93;6.63;;;28.80;73.10;;;;;;5098436;28;20101;-72
2022/07/14 08:40:36;;;;;;;8.52;5.30;;;28.80;72.30;;;;;;5097830;28;20040;-72
2022/07/14 08:43:03;;;;;;;10.43;5.97;;;28.60;73.00;;;;;;5097195;28;20039;-73
2022/07/14 08:45:35;;;;;;;13.02;6.53;;;28.40;75.30;;;;;;5096731;28;20048;-74
2022/07/14 08:48:05;;;;;;;8.90;3.67;;;28.60;75.10;;;;;;5097359;28;20406;-73
2022/07/14 08:50:33;;;;;;;8.23;4.93;;;28.70;72.40;;;;;;5097240;28;20093;-73
2022/07/14 08:53:03;;;;;;;11.13;4.75;;;28.80;72.30;;;;;;5097051;28;20089;-73
2022/07/14 08:55:32;;;;;;;9.88;3.25;;;29.00;71.10;;;;;;5096469;28;20239;-74
2022/07/14 08:57:59;;;;;;;7.53;2.50;;;29.00;70.60;;;;;;5079088;28;20055;-73
2022/07/14 09:00:27;;;;;;;5.75;2.95;;;28.80;69.80;;;;;;5097154;28;20129;-73
2022/07/14 09:02:55;;;;;;;11.10;4.25;;;28.70;69.80;;;;;;5097127;28;20093;-73
2022/07/14 09:05:24;;;;;;;8.82;4.18;;;28.90;70.10;;;;;;5096643;28;20044;-72
2022/07/14 09:07:57;;;;;;;8.10;3.63;;;29.10;69.60;;;;;;5094673;28;20392;-74
2022/07/14 09:10:26;;;;;;;5.95;2.65;;;29.20;69.40;;;;;;5076427;28;20076;-73
2022/07/14 09:13:10;;;;;;;10.38;3.20;;;29.20;67.90;;;;;;5089940;28;20760;-73
2022/07/14 09:15:47;;;;;;;10.05;3.42;;;29.20;67.90;;;;;;5085678;28;20129;-73
2022/07/14 09:18:20;;;;;;;9.27;2.72;;;29.20;68.70;;;;;;5096379;28;20089;-75
2022/07/14 09:20:51;;;;;;;9.43;2.35;;;29.30;67.90;;;;;;5097039;28;20436;-74
2022/07/14 09:23:27;;;;;;;7.80;4.13;;;29.10;66.90;;;;;;5077719;28;20072;-74
2022/07/14 09:26:11;;;;;;;6.22;2.78;;;29.40;66.60;;;;;;5096050;28;20093;-73
2022/07/14 09:28:44;;;;;;;9.02;2.45;;;29.30;65.30;;;;;;5096778;28;20039;-73
2022/07/14 09:31:23;;;;;;;5.60;2.58;;;29.30;63.90;;;;;;5096369;28;20044;-74
2022/07/14 09:33:51;;;;;;;6.05;2.53;;;29.40;63.50;;;;;;5096058;28;20443;-72
2022/07/14 09:36:30;;;;;;;10.70;4.65;;;29.50;64.30;;;;;;5096207;28;20081;-73
2022/07/14 09:39:06;;;;;;;5.03;2.42;;;29.60;63.60;;;;;;5095388;28;20093;-74
2022/07/14 09:41:36;;;;;;;8.77;2.15;;;29.80;60.20;;;;;;5096400;28;20119;-74
2022/07/14 09:44:08;;;;;;;6.22;2.35;;;29.80;61.00;;;;;;5092109;28;20122;-74
2022/07/14 09:46:44;;;;;;;3.72;2.17;;;29.80;61.80;;;;;;5096075;28;20097;-75
2022/07/14 09:49:12;;;;;;;10.60;2.83;;;29.60;62.20;;;;;;5095978;28;20089;-75
2022/07/14 09:51:54;;;;;;;7.97;2.45;;;29.40;62.90;;;;;;5096014;28;20600;-73
2022/07/14 09:54:41;;;;;;;9.05;3.13;;;29.60;62.60;;;;;;5095573;28;20072;-74
2022/07/14 09:57:18;;;;;;;13.10;2.80;;;29.60;63.20;;;;;;5094298;28;20155;-75
2022/07/14 09:59:47;;;;;;;7.75;3.25;;;29.60;62.50;;;;;;5096844;28;20036;-74
2022/07/14 10:02:19;;;;;;;8.25;3.83;;;29.70;62.80;;;;;;5096222;28;20121;-75
2022/07/14 10:04:47;;;;;;;4.00;2.17;;;30.00;61.80;;;;;;5096627;28;20051;-75
2022/07/14 10:07:17;;;;;;;4.03;1.90;;;30.20;59.90;;;;;;5094854;28;20376;-75
2022/07/14 10:09:51;;;;;;;8.60;2.33;;;30.10;59.70;;;;;;5112854;28;20107;-73
2022/07/14 10:12:19;;;;;;;4.15;2.03;;;30.10;59.40;;;;;;5086589;28;20075;-74
2022/07/14 10:14:46;;;;;;;4.68;2.80;;;29.90;59.30;;;;;;5095949;28;20040;-74
2022/07/14 10:17:15;;;;;;;6.15;3.35;;;30.00;58.90;;;;;;5095833;28;20240;-73
2022/07/14 10:19:44;;;;;;;8.95;4.15;;;29.80;58.70;;;;;;5095644;28;20109;-75
2022/07/14 10:22:11;;;;;;;5.50;2.10;;;29.90;58.60;;;;;;5095697;28;20441;-74
2022/07/14 10:24:41;;;;;;;6.95;3.25;;;30.10;58.40;;;;;;5094301;28;20032;-75
2022/07/14 10:27:09;;;;;;;7.40;4.13;;;30.20;57.80;;;;;;5095118;28;20032;-75
2022/07/14 10:29:38;;;;;;;8.20;3.28;;;30.30;57.10;;;;;;5095094;28;20104;-73
2022/07/14 10:32:24;;;;;;;4.47;2.95;;;30.30;54.60;;;;;;5095307;28;20059;-75
2022/07/14 10:35:01;;;;;;;4.88;1.75;;;30.20;54.10;;;;;;5095597;28;20044;-73
2022/07/14 10:37:35;;;;;;;5.18;1.60;;;30.20;54.30;;;;;;5075450;28;20467;-74
2022/07/14 10:40:13;;;;;;;3.10;1.38;;;30.20;53.30;;;;;;5095884;28;20429;-75
2022/07/14 10:42:52;;;;;;;6.25;2.33;;;30.10;53.20;;;;;;5095413;28;20051;-74
2022/07/14 10:45:20;;;;;;;7.20;2.83;;;30.10;54.30;;;;;;5094879;28;20419;-74
2022/07/14 10:47:49;;;;;;;5.38;3.47;;;30.10;54.80;;;;;;5095773;28;20047;-74
2022/07/14 10:50:20;;;;;;;5.32;2.80;;;30.20;55.40;;;;;;5095933;28;20052;-73
2022/07/14 10:53:00;;;;;;;8.10;2.85;;;30.30;55.90;;;;;;5094474;28;20093;-74
2022/07/14 10:55:37;;;;;;;10.40;3.33;;;30.40;56.50;;;;;;5091327;28;20123;-74
2022/07/14 10:58:27;;;;;;;5.57;2.63;;;30.50;56.70;;;;;;5094224;28;20127;-75
2022/07/14 11:00:57;;;;;;;6.05;3.20;;;30.60;56.30;;;;;;5094992;28;20090;-75
2022/07/14 11:03:28;;;;;;;7.25;3.50;;;30.40;57.00;;;;;;5094470;28;20048;-74
2022/07/14 11:06:18;;;;;;;7.03;4.38;;;30.50;57.80;;;;;;5094391;28;20040;-75
2022/07/14 11:08:46;;;;;;;10.60;3.72;;;30.70;57.80;;;;;;5093756;28;20055;-75
2022/07/14 11:11:19;;;;;;;7.20;3.10;;;30.80;57.10;;;;;;5093977;28;20040;-74
2022/07/14 11:14:24;;;;;;;7.60;3.22;;;30.70;55.70;;;;;;5093899;28;20073;-74
2022/07/14 11:16:59;;;;;;;7.18;3.25;;;30.70;55.90;;;;;;5057321;28;20048;-74
2022/07/14 11:19:33;;;;;;;6.55;2.78;;;30.60;55.40;;;;;;5094541;28;20398;-74
2022/07/14 11:22:20;;;;;;;9.48;3.50;;;30.70;55.70;;;;;;5093826;28;20044;-72
2022/07/14 11:24:50;;;;;;;6.68;3.22;;;30.70;55.90;;;;;;5094518;28;20044;-74
2022/07/14 11:27:32;;;;;;;6.57;2.58;;;30.80;55.80;;;;;;5095630;28;20042;-74
2022/07/14 11:30:18;;;;;;;7.85;3.33;;;30.90;55.80;;;;;;5110511;28;20117;-74
2022/07/14 11:32:46;;;;;;;9.50;2.55;;;31.00;55.50;;;;;;5093940;28;20556;-75
2022/07/14 11:38:22;;;;;;;6.57;4.00;;;30.60;55.30;;;;;;5116826;28;20027;-73
2022/07/14 11:40:52;;;;;;;5.78;3.80;;;30.70;55.00;;;;;;5116658;28;20029;-74
2022/07/14 11:43:41;;;;;;;7.00;3.15;;;30.80;55.10;;;;;;5103466;28;20130;-74
2022/07/14 11:46:10;;;;;;;6.70;3.10;;;30.90;54.70;;;;;;5094787;28;20048;-74
2022/07/14 11:48:39;;;;;;;6.45;2.90;;;30.90;54.70;;;;;;5080372;28;20074;-73
2022/07/14 11:51:08;;;;;;;8.60;3.10;;;30.80;54.30;;;;;;5095855;28;20036;-74
2022/07/14 11:53:37;;;;;;;6.50;3.60;;;30.80;54.20;;;;;;5094676;28;20048;-74
2022/07/14 11:56:06;;;;;;;9.73;3.58;;;30.70;53.80;;;;;;5095040;28;20051;-74
2022/07/14 11:58:35;;;;;;;11.57;3.45;;;30.70;54.10;;;;;;5101288;28;20036;-74
2022/07/14 12:01:04;;;;;;;11.20;4.25;;;30.80;53.60;;;;;;5096502;28;20054;-74
2022/07/14 12:03:33;;;;;;;9.35;3.80;;;30.90;54.00;;;;;;5098676;28;20044;-74
2022/07/14 12:06:02;;;;;;;6.35;3.58;;;30.90;54.30;;;;;;5112436;28;20094;-75
2022/07/14 12:08:31;;;;;;;13.05;2.67;;;30.90;54.10;;;;;;5093907;28;20060;-74
2022/07/14 12:11:08;;;;;;;5.60;2.20;;;30.80;53.40;;;;;;5094286;28;20048;-74
2022/07/14 12:13:47;;;;;;;8.18;5.75;;;30.70;53.60;;;;;;5092161;28;20142;-74
2022/07/14 12:16:15;;;;;;;8.15;2.30;;;30.60;53.90;;;;;;5093004;28;20044;-74
2022/07/14 12:18:43;;;;;;;6.72;2.55;;;30.50;53.70;;;;;;5083286;28;20093;-74
2022/07/14 12:21:11;;;;;;;4.88;2.30;;;30.50;54.00;;;;;;5074559;28;20040;-74
2022/07/14 12:23:52;;;;;;;7.25;2.45;;;30.50;53.90;;;;;;5073408;28;20071;-74
2022/07/14 12:26:20;;;;;;;5.43;2.72;;;30.60;54.30;;;;;;5073153;28;20051;-74
2022/07/14 12:28:49;;;;;;;8.88;3.60;;;30.60;54.00;;;;;;5074500;28;20049;-74
2022/07/14 12:31:21;;;;;;;6.22;2.83;;;30.80;53.50;;;;;;5073665;28;20545;-75
2022/07/14 12:33:49;;;;;;;12.77;5.72;;;30.90;53.50;;;;;;5073800;28;20067;-73
2022/07/14 12:36:19;;;;;;;7.65;5.13;;;31.00;53.50;;;;;;5074601;28;20075;-74
2022/07/14 12:38:47;;;;;;;8.80;4.20;;;31.00;53.00;;;;;;5073959;28;20052;-74
2022/07/14 12:41:16;;;;;;;10.95;5.53;;;31.10;52.60;;;;;;5079699;28;20040;-74
2022/07/14 12:43:44;;;;;;;9.77;6.38;;;31.10;52.70;;;;;;5092996;28;20105;-75
2022/07/14 12:46:15;;;;;;;8.65;3.90;;;31.20;52.40;;;;;;5092782;28;20127;-74
2022/07/14 12:49:04;;;;;;;6.03;3.13;;;31.10;53.00;;;;;;5094380;28;20032;-73
2022/07/14 12:51:37;;;;;;;7.22;2.15;;;31.00;52.50;;;;;;5093607;28;20566;-73
2022/07/14 12:54:07;;;;;;;5.00;2.38;;;30.90;52.60;;;;;;5093049;28;20052;-73
2022/07/14 12:56:36;;;;;;;10.55;2.65;;;30.90;53.00;;;;;;5094878;28;20059;-73
2022/07/14 12:59:05;;;;;;;4.90;2.50;;;30.90;52.50;;;;;;5093898;28;20044;-73
2022/07/14 13:01:43;;;;;;;4.60;2.25;;;30.80;53.00;;;;;;5096437;28;20040;-74
2022/07/14 13:04:17;;;;;;;15.38;7.82;;;30.70;52.70;;;;;;5097270;28;20048;-73
2022/07/14 13:06:46;;;;;;;8.38;3.53;;;30.70;53.10;;;;;;5097737;28;20050;-74